Time;durP1;ratioP1;P1;durP2;ratioP2;P2;SDS_P1;SDS_P2;PMS_P1;PMS_P2;Temp;Humidity;BMP_temperature;BMP_pressure;BME280_temperature;BME280_humidity;BME280_pressure;Samples;Min_cycle;Max_cycle;Signal;HPM_P1;HPM_P2
2024/01/23 00:00:15;;;;;;;83.07;33.83;;;;;;;;;;5023567;28;20211;-70
2024/01/23 00:02:41;;;;;;;91.53;36.33;;;;;;;-142.91;100.00;56616.03;5022801;28;20830;-71
2024/01/23 00:05:08;;;;;;;97.70;36.37;;;;;;;23.26;100.00;56616.03;5021134;28;20260;-72
2024/01/23 00:07:36;;;;;;;94.73;35.43;;;;;;;23.41;100.00;56616.03;5020719;28;20908;-72
2024/01/23 00:10:04;;;;;;;97.90;33.27;;;;;;;23.57;100.00;56616.03;5024231;28;20302;-70
2024/01/23 00:12:30;;;;;;;94.37;33.60;;;;;;;23.90;100.00;56616.03;5027501;28;20268;-71
2024/01/23 00:14:58;;;;;;;75.80;30.83;;;;;;;23.41;100.00;56616.03;5029893;28;22466;-71
2024/01/23 00:17:25;;;;;;;77.70;27.50;;;;;;;-142.91;100.00;56616.03;5029024;28;20432;-70
2024/01/23 00:19:52;;;;;;;77.43;29.30;;;;;;;-142.91;100.00;56616.03;5027330;28;20306;-72
2024/01/23 00:22:19;;;;;;;77.17;29.23;;;;;;;23.33;100.00;56616.03;5026549;28;20237;-70
2024/01/23 00:24:47;;;;;;;85.20;30.10;;;;;;;23.57;100.00;56616.03;5024956;28;21140;-71
2024/01/23 00:27:13;;;;;;;86.18;29.90;;;;;;;23.29;100.00;56616.03;5035174;28;20199;-71
2024/01/23 00:29:40;;;;;;;88.60;29.50;;;;;;;23.90;100.00;56616.03;5030451;28;20207;-73
2024/01/23 00:32:07;;;;;;;80.88;29.00;;;;;;;23.33;100.00;56616.03;5036347;28;20206;-71
2024/01/23 00:34:33;;;;;;;82.13;29.93;;;;;;;23.57;100.00;56616.03;5032566;28;20297;-73
2024/01/23 00:37:02;;;;;;;79.17;29.10;;;;;;;23.41;100.00;56616.03;5032401;28;20314;-74
2024/01/23 00:39:29;;;;;;;86.53;29.77;;;;;;;-142.91;100.00;56616.03;5033145;28;20652;-73
2024/01/23 00:41:57;;;;;;;87.47;30.57;;;;;;;24.55;100.00;56616.03;5028119;28;20317;-72
2024/01/23 00:44:24;;;;;;;83.83;28.23;;;;;;;23.90;100.00;56616.03;5031966;28;20289;-72
2024/01/23 00:46:50;;;;;;;77.67;27.83;;;;;;;23.33;100.00;56616.03;5030361;28;20207;-71
2024/01/23 00:49:17;;;;;;;91.57;29.80;;;;;;;23.90;100.00;56616.03;5029658;28;20417;-72
2024/01/23 00:51:44;;;;;;;86.47;32.80;;;;;;;24.55;100.00;56616.03;5026592;28;20887;-71
2024/01/23 00:54:10;;;;;;;83.87;28.50;;;;;;;-142.91;100.00;56616.03;5025818;28;21576;-72
2024/01/23 00:56:41;;;;;;;71.83;31.27;;;;;;;-142.91;100.00;56616.03;5027340;28;20300;-71
2024/01/23 00:59:10;;;;;;;87.50;31.63;;;;;;;;;;5022352;28;20294;-72
2024/01/23 01:01:36;;;;;;;84.87;29.90;;;;;;;23.57;100.00;56616.03;5035636;28;21452;-71
2024/01/23 01:04:03;;;;;;;84.30;28.07;;;;;;;23.90;100.00;56616.03;5028510;28;20211;-73
2024/01/23 01:06:30;;;;;;;92.97;28.47;;;;;;;24.55;100.00;56616.03;5025072;28;20295;-71
2024/01/23 01:08:57;;;;;;;89.60;30.83;;;;;;;-142.91;100.00;56616.03;5025503;28;20680;-72
2024/01/23 01:11:24;;;;;;;84.10;28.77;;;;;;;23.57;100.00;56616.03;5026596;28;20213;-71
2024/01/23 01:13:51;;;;;;;78.20;27.08;;;;;;;23.27;100.00;56616.03;5026725;28;20313;-72
2024/01/23 01:16:19;;;;;;;83.60;29.77;;;;;;;23.90;100.00;56616.03;5026416;28;20206;-71
2024/01/23 01:18:45;;;;;;;74.50;26.93;;;;;;;23.90;100.00;56616.03;5024066;28;20310;-72
2024/01/23 01:21:12;;;;;;;90.60;30.00;;;;;;;23.27;100.00;56616.03;5030478;28;21164;-74
2024/01/23 01:23:38;;;;;;;65.23;26.23;;;;;;;23.57;100.00;56616.03;5029070;28;20326;-73
2024/01/23 01:26:05;;;;;;;91.33;29.50;;;;;;;-142.91;100.00;56616.03;5026466;28;20207;-73
2024/01/23 01:28:32;;;;;;;66.53;27.07;;;;;;;23.27;100.00;56616.03;5022405;28;20294;-73
2024/01/23 01:30:58;;;;;;;94.00;28.27;;;;;;;23.90;100.00;56616.03;5031151;28;20298;-74
2024/01/23 01:33:27;;;;;;;95.35;28.65;;;;;;;23.90;100.00;56616.03;5028382;28;20676;-75
2024/01/23 01:35:54;;;;;;;83.90;28.35;;;;;;;23.33;100.00;56616.03;5033275;28;20297;-73
2024/01/23 01:38:21;;;;;;;71.90;27.77;;;;;;;23.27;100.00;56616.03;5028981;28;20194;-72
2024/01/23 01:40:47;;;;;;;80.20;25.15;;;;;;;23.29;100.00;56616.03;5027432;28;20289;-72
2024/01/23 01:43:32;;;;;;;80.95;27.88;;;;;;;23.25;100.00;56616.03;5025074;28;20702;-72
2024/01/23 01:46:12;;;;;;;72.47;26.60;;;;;;;23.41;100.00;56616.03;5031535;28;20294;-73
2024/01/23 01:48:41;;;;;;;72.23;25.27;;;;;;;24.55;100.00;56616.03;5026040;28;20731;-73
2024/01/23 01:51:09;;;;;;;65.60;23.48;;;;;;;-142.91;100.00;56616.03;5025487;28;20211;-74
2024/01/23 01:53:36;;;;;;;57.45;25.20;;;;;;;23.29;100.00;56616.03;5029709;28;20206;-70
2024/01/23 01:56:04;;;;;;;77.28;25.90;;;;;;;23.41;100.00;56616.03;5029437;28;20290;-70
2024/01/23 01:58:32;;;;;;;74.28;25.30;;;;;;;23.41;100.00;56616.03;5023926;28;20199;-73
2024/01/23 02:00:59;;;;;;;65.27;24.97;;;;;;;23.27;100.00;56616.03;5028465;28;20290;-73
2024/01/23 02:03:26;;;;;;;67.70;25.08;;;;;;;23.29;100.00;56616.03;5027382;28;20317;-73
2024/01/23 02:05:56;;;;;;;68.80;26.15;;;;;;;23.57;100.00;56616.03;5028828;28;20202;-73
2024/01/23 02:08:22;;;;;;;85.33;25.10;;;;;;;;;;5025809;28;20257;-74
2024/01/23 02:10:49;;;;;;;66.07;26.17;;;;;;;23.27;100.00;56616.03;5025268;28;20293;-73
2024/01/23 02:13:16;;;;;;;66.10;25.07;;;;;;;24.55;100.00;56616.03;5024350;28;20361;-72
2024/01/23 02:15:42;;;;;;;65.40;24.43;;;;;;;23.90;100.00;56616.03;5029491;28;20331;-73
2024/01/23 02:18:09;;;;;;;70.37;24.80;;;;;;;23.41;100.00;56616.03;5025990;28;20289;-73
2024/01/23 02:20:35;;;;;;;65.90;27.00;;;;;;;-142.91;100.00;56616.03;5016834;28;20211;-73
2024/01/23 02:23:04;;;;;;;63.47;25.00;;;;;;;23.57;100.00;56616.03;5025291;28;20250;-72
2024/01/23 02:25:32;;;;;;;70.60;23.77;;;;;;;-142.91;100.00;56616.03;5028849;28;20285;-74
2024/01/23 02:27:59;;;;;;;69.40;25.93;;;;;;;23.57;100.00;56616.03;5031367;28;20289;-74
2024/01/23 02:30:26;;;;;;;68.73;25.83;;;;;;;23.57;100.00;56616.03;5021608;28;20743;-73
2024/01/23 02:32:52;;;;;;;79.80;27.50;;;;;;;23.41;100.00;56616.03;5027570;28;20208;-71
2024/01/23 02:35:19;;;;;;;72.70;24.70;;;;;;;23.57;100.00;56616.03;5024916;28;20692;-72
2024/01/23 02:37:45;;;;;;;65.20;26.33;;;;;;;23.41;100.00;56616.03;5030796;28;20245;-71
2024/01/23 02:40:13;;;;;;;65.13;24.97;;;;;;;23.57;100.00;56616.03;5028362;28;20230;-71
2024/01/23 02:42:41;;;;;;;66.87;27.27;;;;;;;23.27;100.00;56616.03;5026298;28;21248;-72
2024/01/23 02:45:08;;;;;;;64.97;24.63;;;;;;;23.29;100.00;56616.03;5022016;28;20294;-73
2024/01/23 02:47:34;;;;;;;61.17;22.20;;;;;;;23.26;100.00;56616.03;5023340;28;20789;-72
2024/01/23 02:50:01;;;;;;;58.87;24.40;;;;;;;-142.91;100.00;56616.03;5027129;28;20195;-72
2024/01/23 02:52:31;;;;;;;71.10;25.70;;;;;;;23.41;100.00;56616.03;5026784;28;20191;-73
2024/01/23 02:54:58;;;;;;;80.23;28.70;;;;;;;23.33;100.00;56616.03;5027439;28;20199;-71
2024/01/23 02:57:24;;;;;;;76.53;26.30;;;;;;;23.41;100.00;56616.03;5026694;28;20290;-71
2024/01/23 02:59:52;;;;;;;61.47;23.03;;;;;;;23.90;100.00;56616.03;5027161;28;20226;-73
2024/01/23 03:02:19;;;;;;;44.90;22.07;;;;;;;23.27;100.00;56616.03;5027923;28;20217;-73
2024/01/23 03:04:45;;;;;;;70.03;24.40;;;;;;;;;;5029012;28;20318;-70
2024/01/23 03:07:12;;;;;;;62.53;25.60;;;;;;;;;;5026781;28;20302;-73
2024/01/23 03:09:38;;;;;;;60.83;23.33;;;;;;;24.55;100.00;56616.03;5029814;28;20297;-74
2024/01/23 03:12:14;;;;;;;55.67;24.57;;;;;;;23.26;100.00;56616.03;5021953;28;20728;-73
2024/01/23 03:14:41;;;;;;;66.03;24.67;;;;;;;23.26;100.00;56616.03;5017069;28;20361;-73
2024/01/23 03:17:09;;;;;;;67.93;23.60;;;;;;;23.27;100.00;56616.03;5022946;28;20279;-74
2024/01/23 03:19:36;;;;;;;63.50;27.27;;;;;;;23.90;100.00;56616.03;5028960;28;20297;-72
2024/01/23 03:22:03;;;;;;;56.40;21.77;;;;;;;23.29;100.00;56616.03;5033799;28;20336;-74
2024/01/23 03:24:29;;;;;;;49.37;22.13;;;;;;;23.57;100.00;56616.03;5024561;28;20362;-75
2024/01/23 03:26:56;;;;;;;66.77;23.23;;;;;;;23.26;100.00;56616.03;5028830;28;20286;-72
2024/01/23 03:29:23;;;;;;;67.57;24.43;;;;;;;-142.91;100.00;56616.03;5031058;28;20238;-74
2024/01/23 03:31:50;;;;;;;67.77;25.73;;;;;;;-142.91;100.00;56616.03;5029915;28;20281;-74
2024/01/23 03:34:20;;;;;;;57.53;24.17;;;;;;;23.26;100.00;56616.03;5030136;28;20207;-72
2024/01/23 03:36:46;;;;;;;61.57;24.23;;;;;;;;;;5029772;28;20215;-73
2024/01/23 03:39:13;;;;;;;51.30;21.23;;;;;;;23.26;100.00;56616.03;5031323;28;20289;-71
2024/01/23 03:41:39;;;;;;;65.20;24.07;;;;;;;;;;5030858;28;20330;-74
2024/01/23 03:44:06;;;;;;;69.00;25.53;;;;;;;-142.91;100.00;56616.03;5027796;28;20323;-72
2024/01/23 03:46:33;;;;;;;56.93;24.03;;;;;;;23.26;100.00;56616.03;5027166;28;20691;-72
2024/01/23 03:49:00;;;;;;;63.97;24.83;;;;;;;-142.91;100.00;56616.03;5032095;28;20307;-72
2024/01/23 03:51:28;;;;;;;65.20;26.03;;;;;;;-142.91;100.00;56616.03;5030164;28;20213;-73
2024/01/23 03:53:55;;;;;;;54.97;23.53;;;;;;;23.26;100.00;56616.03;5041229;28;20285;-73
2024/01/23 03:56:22;;;;;;;78.30;26.27;;;;;;;-142.91;100.00;56616.03;5062172;28;20709;-72
2024/01/23 03:58:49;;;;;;;70.03;27.03;;;;;;;23.29;100.00;56616.03;5058767;28;20209;-72
2024/01/23 04:01:16;;;;;;;63.90;25.00;;;;;;;-142.91;100.00;56616.03;5048819;28;20293;-72
2024/01/23 04:03:42;;;;;;;59.13;22.87;;;;;;;23.29;100.00;56616.03;5055152;28;20798;-72
2024/01/23 04:06:09;;;;;;;57.93;25.07;;;;;;;-142.91;100.00;56616.03;5059998;28;20222;-73
2024/01/23 04:08:37;;;;;;;50.60;22.53;;;;;;;23.33;100.00;56616.03;5054768;28;20333;-73
2024/01/23 04:11:04;;;;;;;64.77;25.93;;;;;;;23.27;100.00;56616.03;5053084;28;20294;-72
2024/01/23 04:13:30;;;;;;;47.53;21.80;;;;;;;;;;5051994;28;20280;-74
2024/01/23 04:15:57;;;;;;;54.67;22.63;;;;;;;23.26;100.00;56616.03;5055867;28;20337;-72
2024/01/23 04:18:24;;;;;;;54.90;24.93;;;;;;;-142.91;100.00;56616.03;5058507;28;20210;-72
2024/01/23 04:20:50;;;;;;;56.90;22.53;;;;;;;23.26;100.00;56616.03;5055350;28;20333;-73
2024/01/23 04:23:17;;;;;;;47.00;22.60;;;;;;;23.25;100.00;56616.03;5048043;28;20273;-73
2024/01/23 04:25:45;;;;;;;50.07;21.50;;;;;;;-142.91;100.00;56616.03;5050189;28;20230;-73
2024/01/23 04:28:12;;;;;;;56.17;23.10;;;;;;;-142.91;100.00;56616.03;5056617;28;20685;-73
2024/01/23 04:30:39;;;;;;;52.73;24.13;;;;;;;23.25;100.00;56616.03;5051709;28;20239;-73
2024/01/23 04:33:06;;;;;;;68.87;24.23;;;;;;;-142.91;100.00;56616.03;5045136;28;20294;-75
2024/01/23 04:35:33;;;;;;;65.17;25.30;;;;;;;-142.91;100.00;56616.03;5046787;28;20223;-73
2024/01/23 04:38:00;;;;;;;57.67;23.83;;;;;;;-142.91;100.00;56616.03;5053485;28;20293;-71
2024/01/23 04:40:26;;;;;;;73.53;28.00;;;;;;;-142.91;100.00;56616.03;5059588;28;20298;-73
2024/01/23 04:42:54;;;;;;;70.60;28.13;;;;;;;23.26;100.00;56616.03;5045327;28;20353;-72
2024/01/23 04:45:21;;;;;;;84.73;29.13;;;;;;;-142.91;100.00;56616.03;5050687;28;20351;-73
2024/01/23 04:47:47;;;;;;;78.07;30.47;;;;;;;-142.91;100.00;56616.03;5054807;28;20230;-72
2024/01/23 04:50:14;;;;;;;87.43;30.97;;;;;;;23.26;100.00;56616.03;5051710;28;20285;-73
2024/01/23 04:52:41;;;;;;;78.83;27.20;;;;;;;-142.91;100.00;56616.03;5056102;28;20291;-73
2024/01/23 04:55:08;;;;;;;85.90;28.10;;;;;;;-142.91;100.00;56616.03;5055410;28;20672;-74
2024/01/23 04:57:35;;;;;;;75.43;28.57;;;;;;;23.26;100.00;56616.03;5052696;28;20917;-73
2024/01/23 05:00:04;;;;;;;75.43;30.00;;;;;;;23.26;100.00;56616.03;5056641;28;20756;-72
2024/01/23 05:02:31;;;;;;;77.90;32.87;;;;;;;-142.91;100.00;56616.03;5061203;28;20667;-72
2024/01/23 05:04:59;;;;;;;77.30;28.60;;;;;;;-142.91;100.00;56616.03;5057127;28;20409;-71
2024/01/23 05:07:25;;;;;;;61.47;26.80;;;;;;;-142.91;100.00;56616.03;5052436;28;20290;-72
2024/01/23 05:09:52;;;;;;;60.47;26.20;;;;;;;-142.91;100.00;56616.03;5051945;28;20286;-72
2024/01/23 05:12:18;;;;;;;68.43;23.80;;;;;;;-142.91;100.00;56616.03;5049673;28;20294;-72
2024/01/23 05:14:45;;;;;;;71.13;27.40;;;;;;;-142.91;100.00;56616.03;5055953;28;20314;-72
2024/01/23 05:17:13;;;;;;;67.77;24.80;;;;;;;;;;5048501;28;20286;-73
2024/01/23 05:19:39;;;;;;;69.17;26.17;;;;;;;-142.91;100.00;56616.03;5052991;28;20282;-73
2024/01/23 05:22:06;;;;;;;76.70;26.77;;;;;;;23.25;100.00;56616.03;5054061;28;21404;-73
2024/01/23 05:24:33;;;;;;;73.70;26.70;;;;;;;-142.91;100.00;56616.03;5054829;28;20321;-73
2024/01/23 05:26:59;;;;;;;76.03;25.10;;;;;;;-142.91;100.00;56616.03;5050726;28;20696;-72
2024/01/23 05:29:26;;;;;;;58.10;26.40;;;;;;;-142.91;100.00;56616.03;5057467;28;20282;-72
2024/01/23 05:31:52;;;;;;;61.50;25.40;;;;;;;-142.91;100.00;56616.03;5055266;28;21011;-72
2024/01/23 05:34:20;;;;;;;70.57;29.13;;;;;;;-142.91;100.00;56616.03;5048471;28;20278;-72
2024/01/23 05:36:47;;;;;;;91.23;31.90;;;;;;;23.26;100.00;56616.03;5057285;28;20655;-72
2024/01/23 05:39:14;;;;;;;74.53;30.60;;;;;;;-142.91;100.00;56616.03;5058183;28;20290;-73
2024/01/23 05:41:41;;;;;;;86.00;32.53;;;;;;;23.26;100.00;56616.03;5048000;28;20209;-76
2024/01/23 05:44:08;;;;;;;85.93;30.10;;;;;;;-142.91;100.00;56616.03;5050641;28;20310;-72
2024/01/23 05:46:35;;;;;;;89.33;28.93;;;;;;;-142.91;100.00;56616.03;5053886;28;20728;-73
2024/01/23 05:49:02;;;;;;;78.67;28.90;;;;;;;23.26;100.00;56616.03;5051036;28;20364;-73
2024/01/23 05:51:29;;;;;;;68.67;28.57;;;;;;;23.26;100.00;56616.03;5049250;28;20203;-72
2024/01/23 05:53:56;;;;;;;75.23;28.97;;;;;;;;;;5046342;28;20720;-74
2024/01/23 05:56:22;;;;;;;66.43;27.23;;;;;;;23.26;100.00;56616.03;5046984;28;20298;-72
2024/01/23 05:58:49;;;;;;;68.27;28.20;;;;;;;23.26;100.00;56616.03;5050214;28;20207;-72
2024/01/23 06:01:16;;;;;;;65.27;26.63;;;;;;;-142.91;100.00;56616.03;5050802;28;20290;-73
2024/01/23 06:03:42;;;;;;;85.33;30.07;;;;;;;-142.91;100.00;56616.03;5058064;28;20365;-73
2024/01/23 06:06:09;;;;;;;98.10;34.33;;;;;;;23.26;100.00;56616.03;5052178;28;20234;-73
2024/01/23 06:08:37;;;;;;;95.03;33.27;;;;;;;23.27;100.00;56616.03;5057740;28;20239;-72
2024/01/23 06:11:04;;;;;;;81.57;32.43;;;;;;;23.26;100.00;56616.03;5054738;28;20287;-73
2024/01/23 06:13:30;;;;;;;87.57;28.97;;;;;;;-142.91;100.00;56616.03;5047408;28;20731;-73
2024/01/23 06:15:57;;;;;;;75.53;30.93;;;;;;;23.26;100.00;56616.03;5055444;28;20289;-73
2024/01/23 06:18:23;;;;;;;83.83;29.17;;;;;;;23.26;100.00;56616.03;5054205;28;20298;-75
2024/01/23 06:20:50;;;;;;;81.83;31.57;;;;;;;23.26;100.00;56616.03;5060150;28;20301;-74
2024/01/23 06:23:17;;;;;;;96.87;35.07;;;;;;;23.26;100.00;56616.03;5057073;28;20285;-74
2024/01/23 06:25:45;;;;;;;103.83;36.73;;;;;;;23.33;100.00;56616.03;5052443;28;20265;-73
2024/01/23 06:28:11;;;;;;;129.43;42.03;;;;;;;23.26;100.00;56616.03;5050363;28;20278;-74
2024/01/23 06:30:38;;;;;;;111.70;44.17;;;;;;;23.26;100.00;56616.03;5057303;28;20281;-74
2024/01/23 06:33:06;;;;;;;115.07;41.43;;;;;;;-142.91;100.00;56616.03;5056909;28;20301;-75
2024/01/23 06:35:32;;;;;;;96.47;34.70;;;;;;;23.57;100.00;56616.03;5051913;28;20196;-74
2024/01/23 06:37:59;;;;;;;90.47;36.50;;;;;;;23.90;100.00;56616.03;5047354;28;20716;-74
2024/01/23 06:40:25;;;;;;;110.73;32.67;;;;;;;;;;5048980;28;20227;-74
2024/01/23 06:42:53;;;;;;;94.77;32.30;;;;;;;-142.91;100.00;56616.03;5050907;28;20752;-75
2024/01/23 06:45:20;;;;;;;88.43;33.17;;;;;;;23.29;100.00;56616.03;5050974;28;20306;-73
2024/01/23 06:47:47;;;;;;;78.70;27.13;;;;;;;23.41;100.00;56616.03;5056254;28;20285;-74
2024/01/23 06:50:13;;;;;;;80.83;30.80;;;;;;;-142.91;100.00;56616.03;5048399;28;20234;-75
2024/01/23 06:52:40;;;;;;;80.50;29.07;;;;;;;23.26;100.00;56616.03;5056394;28;20295;-73
2024/01/23 06:55:06;;;;;;;66.43;29.47;;;;;;;;;;5059180;28;20652;-75
2024/01/23 06:57:33;;;;;;;60.23;30.90;;;;;;;;;;5056490;28;20275;-74
2024/01/23 07:00:00;;;;;;;73.50;30.57;;;;;;;;;;5054360;28;20281;-73
2024/01/23 07:02:27;;;;;;;76.00;31.80;;;;;;;;;;5055035;28;20768;-75
2024/01/23 07:04:53;;;;;;;72.15;30.80;;;;;;;;;;5062061;28;20309;-74
2024/01/23 07:07:20;;;;;;;82.45;34.33;;;;;;;;;;5063114;28;20761;-74
2024/01/23 07:09:46;;;;;;;81.32;33.42;;;;;;;;;;5055867;28;20206;-72
2024/01/23 07:12:14;;;;;;;71.45;32.83;;;;;;;-142.91;100.00;56616.03;5054780;28;21755;-73
2024/01/23 07:14:40;;;;;;;75.30;33.15;;;;;;;-142.91;100.00;56616.03;5051931;28;20298;-73
2024/01/23 07:17:08;;;;;;;66.50;31.73;;;;;;;-142.91;100.00;56616.03;5052066;28;20297;-72
2024/01/23 07:19:35;;;;;;;92.20;36.30;;;;;;;;;;5058544;28;20294;-75
2024/01/23 07:22:02;;;;;;;95.47;35.03;;;;;;;23.26;100.00;56616.03;5053641;28;20306;-73
2024/01/23 07:24:28;;;;;;;95.47;35.13;;;;;;;23.27;100.00;56616.03;5052245;28;20687;-74
2024/01/23 07:26:55;;;;;;;86.57;33.80;;;;;;;;;;5047995;28;20697;-75
2024/01/23 07:29:22;;;;;;;96.63;38.47;;;;;;;;;;5053018;28;20782;-72
2024/01/23 07:31:48;;;;;;;119.23;43.83;;;;;;;;;;5051305;28;20289;-74
2024/01/23 07:34:16;;;;;;;108.78;40.75;;;;;;;;;;5058213;28;20420;-74
2024/01/23 07:36:44;;;;;;;88.00;36.40;;;;;;;;;;5054420;28;20290;-73
2024/01/23 07:39:11;;;;;;;79.45;35.80;;;;;;;;;;5053359;28;20237;-74
2024/01/23 07:41:37;;;;;;;93.60;37.60;;;;;;;;;;5058445;28;20727;-73
2024/01/23 07:44:04;;;;;;;87.63;39.50;;;;;;;;;;5059992;28;20250;-73
2024/01/23 07:46:31;;;;;;;88.40;40.20;;;;;;;-142.91;100.00;56616.03;5050060;28;20226;-75
2024/01/23 07:48:57;;;;;;;100.85;43.63;;;;;;;;;;5057560;28;20238;-74
2024/01/23 07:51:25;;;;;;;96.93;46.60;;;;;;;;;;5053142;28;20281;-73
2024/01/23 07:53:51;;;;;;;112.45;47.72;;;;;;;;;;5057642;28;20238;-73
2024/01/23 07:56:18;;;;;;;117.68;50.83;;;;;;;;;;5051153;28;20290;-74
2024/01/23 07:58:45;;;;;;;105.60;46.55;;;;;;;;;;5050989;28;20210;-73
2024/01/23 08:01:11;;;;;;;119.28;49.85;;;;;;;;;;5057847;28;20768;-73
2024/01/23 08:03:37;;;;;;;120.18;51.13;;;;;;;;;;5054918;28;20298;-73
2024/01/23 08:06:04;;;;;;;137.32;55.75;;;;;;;;;;5052553;28;20317;-72
2024/01/23 08:08:32;;;;;;;138.23;58.67;;;;;;;-142.91;100.00;56616.03;5055984;28;20289;-75
2024/01/23 08:10:58;;;;;;;139.93;57.33;;;;;;;;;;5055553;28;20301;-73
2024/01/23 08:13:25;;;;;;;122.38;55.05;;;;;;;;;;5053991;28;20706;-73
2024/01/23 08:15:51;;;;;;;134.45;54.90;;;;;;;;;;5058771;28;20290;-73
2024/01/23 08:18:18;;;;;;;129.48;54.45;;;;;;;;;;5060146;28;20288;-71
2024/01/23 08:20:44;;;;;;;129.73;54.22;;;;;;;;;;5053011;28;20316;-74
2024/01/23 08:23:11;;;;;;;125.32;53.13;;;;;;;;;;5055381;28;20281;-73
2024/01/23 08:25:38;;;;;;;125.40;52.47;;;;;;;;;;5060083;28;20759;-72
2024/01/23 08:28:05;;;;;;;114.55;49.28;;;;;;;;;;5059479;28;20290;-73
2024/01/23 08:30:31;;;;;;;104.82;46.63;;;;;;;;;;5056497;28;20203;-73
2024/01/23 08:32:58;;;;;;;112.43;48.17;;;;;;;;;;5048158;28;20295;-71
2024/01/23 08:35:24;;;;;;;102.75;48.58;;;;;;;;;;5050136;28;20235;-72
2024/01/23 08:37:50;;;;;;;111.90;48.47;;;;;;;;;;5046848;28;20203;-73
2024/01/23 08:40:17;;;;;;;110.63;50.35;;;;;;;24.55;100.00;56616.03;5055745;28;20289;-71
2024/01/23 08:42:45;;;;;;;118.00;52.08;;;;;;;;;;5059897;28;20289;-74
2024/01/23 08:45:11;;;;;;;120.93;53.50;;;;;;;;;;5062264;28;20767;-71
2024/01/23 08:47:38;;;;;;;128.85;54.55;;;;;;;-142.91;100.00;56616.03;5048934;28;20241;-74
2024/01/23 08:50:05;;;;;;;130.30;54.83;;;;;;;;;;5021946;28;20233;-74
2024/01/23 08:52:31;;;;;;;131.55;56.85;;;;;;;;;;5036932;28;20286;-76
2024/01/23 08:54:58;;;;;;;130.70;55.72;;;;;;;;;;5021580;28;20306;-75
2024/01/23 08:57:24;;;;;;;130.27;53.42;;;;;;;;;;5047773;28;20657;-76
2024/01/23 08:59:52;;;;;;;123.25;54.65;;;;;;;;;;5049487;28;20257;-74
2024/01/23 09:02:19;;;;;;;125.28;53.80;;;;;;;;;;5055262;28;20217;-73
2024/01/23 09:04:46;;;;;;;117.43;54.38;;;;;;;;;;5050276;28;20226;-72
2024/01/23 09:07:13;;;;;;;137.43;58.35;;;;;;;;;;5051298;28;20207;-72
2024/01/23 09:09:39;;;;;;;129.27;54.92;;;;;;;;;;5058222;28;20544;-74
2024/01/23 09:12:06;;;;;;;128.88;54.90;;;;;;;;;;5043926;28;20293;-72
2024/01/23 09:14:33;;;;;;;127.63;54.83;;;;;;;;;;5059731;28;20309;-71
2024/01/23 09:17:00;;;;;;;142.43;56.63;;;;;;;;;;5051073;28;20765;-72
2024/01/23 09:19:27;;;;;;;135.35;56.63;;;;;;;;;;5050331;28;20226;-74
2024/01/23 09:21:54;;;;;;;138.45;58.13;;;;;;;;;;5053075;28;20560;-73
2024/01/23 09:24:20;;;;;;;134.00;57.22;;;;;;;;;;5057690;28;20289;-71
2024/01/23 09:26:47;;;;;;;137.50;62.70;;;;;;;;;;5052645;28;20301;-63
2024/01/23 09:29:13;;;;;;;156.52;67.40;;;;;;;;;;5050626;28;20294;-70
2024/01/23 09:31:44;;;;;;;157.05;71.60;;;;;;;;;;5023625;28;20217;-71
2024/01/23 09:34:12;;;;;;;170.85;71.20;;;;;;;;;;5026269;28;20273;-71
2024/01/23 09:36:38;;;;;;;179.70;75.05;;;;;;;;;;5018144;28;20210;-73
2024/01/23 09:39:05;;;;;;;159.18;72.75;;;;;;;;;;5023655;28;20207;-73
2024/01/23 09:41:34;;;;;;;151.00;65.93;;;;;;;;;;5025409;28;20276;-71
2024/01/23 09:44:00;;;;;;;147.20;64.22;;;;;;;;;;5024588;28;20289;-72
2024/01/23 09:46:27;;;;;;;152.07;67.10;;;;;;;;;;5024135;28;20607;-72
2024/01/23 09:48:54;;;;;;;155.80;66.57;;;;;;;;;;5026248;28;20206;-71
2024/01/23 09:51:23;;;;;;;158.27;64.25;;;;;;;-142.91;100.00;59479.97;5023993;28;20264;-72
2024/01/23 09:53:50;;;;;;;154.57;63.40;;;;;;;;;;5025407;28;20190;-69
2024/01/23 09:56:17;;;;;;;142.15;64.95;;;;;;;;;;5022822;28;20199;-73
2024/01/23 09:58:43;;;;;;;163.70;71.35;;;;;;;;;;5020475;28;20201;-72
2024/01/23 10:01:10;;;;;;;156.18;69.18;;;;;;;;;;5023294;28;21716;-74
2024/01/23 10:03:37;;;;;;;167.68;69.68;;;;;;;;;;5051817;28;20976;-72
2024/01/23 10:06:04;;;;;;;158.02;70.22;;;;;;;;;;5053449;28;20313;-73
2024/01/23 10:08:32;;;;;;;148.10;66.32;;;;;;;;;;5055739;28;20254;-72
2024/01/23 10:10:59;;;;;;;165.20;67.38;;;;;;;;;;5055403;28;20310;-72
2024/01/23 10:13:26;;;;;;;163.90;71.68;;;;;;;;;;5062068;28;20328;-73
2024/01/23 10:15:52;;;;;;;155.50;66.03;;;;;;;;;;5057453;28;20198;-73
2024/01/23 10:18:19;;;;;;;170.27;68.40;;;;;;;23.33;100.00;56616.03;5056640;28;20301;-73
2024/01/23 10:20:46;;;;;;;164.70;68.13;;;;;;;;;;5052863;28;20331;-73
2024/01/23 10:23:13;;;;;;;166.52;64.38;;;;;;;;;;5049580;28;20291;-73
2024/01/23 10:25:41;;;;;;;157.18;62.25;;;;;;;;;;5046215;28;20313;-72
2024/01/23 10:28:08;;;;;;;159.80;66.57;;;;;;;;;;5063598;28;20294;-73
2024/01/23 10:30:36;;;;;;;155.93;64.18;;;;;;;;;;5052528;28;20206;-71
2024/01/23 10:33:03;;;;;;;153.60;66.78;;;;;;;;;;5064173;28;20191;-72
2024/01/23 10:35:33;;;;;;;159.77;63.83;;;;;;;23.90;100.00;56616.03;5064351;28;20298;-73
2024/01/23 10:38:00;;;;;;;154.55;68.70;;;;;;;;;;5063679;28;20236;-73
2024/01/23 10:40:27;;;;;;;157.73;63.80;;;;;;;;;;5064801;28;20289;-72
2024/01/23 10:42:56;;;;;;;146.93;60.47;;;;;;;33.65;100.00;56616.03;5046533;28;20207;-73
2024/01/23 10:45:24;;;;;;;142.45;57.03;;;;;;;-142.91;100.00;56616.03;5023731;28;20231;-70
2024/01/23 10:47:51;;;;;;;135.90;58.20;;;;;;;;;;5024636;28;20761;-74
2024/01/23 10:50:20;;;;;;;145.23;55.72;;;;;;;-142.91;100.00;56616.03;5020175;28;20210;-78
2024/01/23 10:52:48;;;;;;;158.43;59.78;;;;;;;-142.91;100.00;56616.03;5023107;28;20277;-71
2024/01/23 10:55:16;;;;;;;157.05;61.90;;;;;;;;;;5028495;28;20202;-73
2024/01/23 10:57:46;;;;;;;132.38;56.85;;;;;;;-142.91;100.00;56616.03;5028264;28;20207;-72
2024/01/23 11:00:15;;;;;;;146.55;56.55;;;;;;;;;;5024244;28;20692;-73
2024/01/23 11:02:44;;;;;;;142.63;54.38;;;;;;;;;;5027038;28;20219;-72
2024/01/23 11:05:11;;;;;;;137.27;56.67;;;;;;;;;;5057400;28;20321;-71
2024/01/23 11:07:45;;;;;;;132.68;57.30;;;;;;;-142.91;100.00;56616.03;5057998;28;20203;-73
2024/01/23 11:10:23;;;;;;;138.95;54.67;;;;;;;23.41;100.00;56616.03;5051428;28;20289;-71
2024/01/23 11:12:55;;;;;;;122.35;53.80;;;;;;;;;;5060565;28;20226;-71
2024/01/23 11:15:23;;;;;;;145.23;55.78;;;;;;;;;;5048166;28;20294;-70
2024/01/23 11:17:50;;;;;;;119.88;54.08;;;;;;;;;;5049648;28;20297;-71
2024/01/23 11:20:17;;;;;;;128.85;50.92;;;;;;;;;;5050565;28;20290;-70
2024/01/23 11:22:44;;;;;;;140.43;51.30;;;;;;;;;;5055081;28;20309;-72
2024/01/23 11:25:11;;;;;;;131.07;50.05;;;;;;;;;;5058132;28;20206;-70
2024/01/23 11:27:38;;;;;;;118.25;49.13;;;;;;;;;;5053419;28;20293;-70
2024/01/23 11:30:09;;;;;;;118.75;51.65;;;;;;;;;;5055745;28;20290;-69
2024/01/23 11:32:37;;;;;;;115.53;52.05;;;;;;;;;;5052920;28;20290;-70
2024/01/23 11:35:07;;;;;;;127.38;52.58;;;;;;;;;;5048546;28;20282;-73
2024/01/23 11:37:41;;;;;;;129.02;52.30;;;;;;;;;;5048211;28;20231;-75
2024/01/23 11:40:09;;;;;;;120.32;51.92;;;;;;;;;;5026321;28;20862;-77
2024/01/23 11:42:36;;;;;;;124.07;51.33;;;;;;;;;;5022308;28;20808;-84
2024/01/23 11:45:22;;;;;;;122.10;50.33;;;;;;;-142.91;100.00;56616.03;5025402;28;20287;-87
2024/01/23 11:47:54;;;;;;;128.00;54.22;;;;;;;23.57;100.00;56616.03;5048718;28;20206;-82
2024/01/23 11:50:21;;;;;;;128.18;54.55;;;;;;;-142.91;100.00;56616.03;5063542;28;20199;-79
2024/01/23 11:52:49;;;;;;;132.23;54.22;;;;;;;;;;5061685;28;20292;-81
2024/01/23 11:55:16;;;;;;;134.40;58.13;;;;;;;23.27;100.00;56616.03;5058182;28;20295;-80
2024/01/23 11:57:43;;;;;;;141.43;56.63;;;;;;;23.29;100.00;56616.03;5052954;28;20316;-78
2024/01/23 12:00:10;;;;;;;117.05;53.78;;;;;;;;;;5051809;28;20782;-76
2024/01/23 12:02:37;;;;;;;136.00;54.03;;;;;;;-142.91;100.00;56616.03;5056756;28;20285;-74